Time;durP1;ratioP1;P1;durP2;ratioP2;P2;SDS_P1;SDS_P2;PMS_P1;PMS_P2;Temp;Humidity;BMP_temperature;BMP_pressure;BME280_temperature;BME280_humidity;BME280_pressure;Samples;Min_cycle;Max_cycle;Signal;HPM_P1;HPM_P2
2022/01/15 00:02:08;;;;;;;6.00;0.90;;;;;;;2.16;51.27;98091.31;1791594;78;21369;-41
2022/01/15 00:04:35;;;;;;;6.22;1.00;;;;;;;2.11;50.96;98059.45;1781757;80;21025;-41
2022/01/15 00:07:03;;;;;;;6.62;1.35;;;;;;;2.16;51.84;98090.77;1787831;79;21098;-41
2022/01/15 00:09:29;;;;;;;2.27;1.00;;;;;;;2.12;51.57;98093.89;1782040;80;20976;-41
2022/01/15 00:11:56;;;;;;;6.55;1.25;;;;;;;2.13;51.48;98090.66;1752710;81;21026;-41
2022/01/15 00:14:32;;;;;;;2.65;1.07;;;;;;;2.11;51.83;98098.22;1750686;80;21096;-41
2022/01/15 00:17:04;;;;;;;4.72;1.00;;;;;;;2.11;52.02;98097.67;1744281;82;21037;-41
2022/01/15 00:19:40;;;;;;;5.55;1.52;;;;;;;2.07;51.80;98106.69;1777664;78;21090;-41
2022/01/15 00:21:53;;;;;;;4.42;1.27;;;;;;;2.08;51.72;98096.98;1764325;79;21037;-41
2022/01/15 00:24:21;;;;;;;3.65;0.90;;;;;;;2.03;51.53;98101.20;1770623;78;21048;-41
2022/01/15 00:26:47;;;;;;;5.05;1.07;;;;;;;2.05;51.91;98113.70;1783967;80;21536;-41
2022/01/15 00:29:14;;;;;;;1.42;0.80;;;;;;;2.03;51.89;98110.56;1784126;80;20937;-41
2022/01/15 00:31:40;;;;;;;3.55;1.10;;;;;;;2.05;51.82;98134.30;1779167;80;21117;-41
2022/01/15 00:34:08;;;;;;;4.20;1.05;;;;;;;2.03;52.49;98121.84;1743457;82;20957;-41
2022/01/15 00:36:35;;;;;;;3.80;1.00;;;;;;;2.04;53.61;98135.41;1714688;81;21057;-41
2022/01/15 00:39:02;;;;;;;3.33;0.98;;;;;;;1.96;54.36;98134.96;1767489;81;20946;-41
2022/01/15 00:41:29;;;;;;;2.60;1.10;;;;;;;1.93;54.84;98132.41;1753064;81;21536;-41
2022/01/15 00:43:55;;;;;;;2.92;1.05;;;;;;;1.86;55.02;98136.17;1745047;81;21822;-41
2022/01/15 00:46:21;;;;;;;6.53;1.75;;;;;;;1.83;54.89;98136.84;1747779;82;21141;-41
2022/01/15 00:48:48;;;;;;;8.08;1.12;;;;;;;1.79;54.64;98139.96;1749568;81;21498;-41
2022/01/15 00:51:15;;;;;;;4.72;1.20;;;;;;;1.80;54.58;98137.48;1749302;81;21078;-41
2022/01/15 00:53:41;;;;;;;2.87;0.98;;;;;;;1.82;54.30;98128.59;1766420;79;21041;-41
2022/01/15 00:56:09;;;;;;;2.60;0.90;;;;;;;1.83;54.60;98140.86;1770014;81;21142;-41
2022/01/15 00:58:36;;;;;;;8.50;1.00;;;;;;;1.85;53.97;98141.84;1769926;81;21476;-41
2022/01/15 01:01:02;;;;;;;5.78;1.07;;;;;;;1.82;53.89;98157.99;1770139;81;20981;-41
2022/01/15 01:03:29;;;;;;;3.17;0.85;;;;;;;1.82;54.20;98155.87;1769972;81;21019;-41
2022/01/15 01:05:56;;;;;;;3.47;1.20;;;;;;;1.84;54.47;98153.08;1770420;79;21490;-41
2022/01/15 01:08:22;;;;;;;4.55;0.95;;;;;;;1.80;54.82;98146.84;1770351;81;21145;-41
2022/01/15 01:10:56;;;;;;;6.17;1.27;;;;;;;1.82;55.39;98148.64;1759670;80;20962;-41
2022/01/15 01:20:05;;;;;;;3.92;0.90;;;;;;;1.71;56.09;98152.84;1725051;83;21005;-41
2022/01/15 01:22:02;;;;;;;3.42;1.10;;;;;;;1.68;56.59;98148.16;1720105;83;21155;-41
2022/01/15 01:23:52;;;;;;;2.25;0.93;;;;;;;1.61;56.86;98154.03;1720171;83;21031;-41
2022/01/15 01:26:31;;;;;;;6.30;0.90;;;;;;;1.61;56.85;98158.59;1710513;81;21060;-41
2022/01/15 01:29:18;;;;;;;3.47;0.95;;;;;;;1.64;56.74;98161.96;1697052;83;21045;-41
2022/01/15 01:31:41;;;;;;;3.08;1.20;;;;;;;1.65;56.67;98157.60;1698608;81;21072;-41
2022/01/15 01:34:09;;;;;;;4.45;1.65;;;;;;;1.66;56.44;98148.48;1704991;83;21123;-41
2022/01/15 01:36:49;;;;;;;4.33;1.17;;;;;;;1.68;56.51;98154.29;1708129;81;21135;-41
2022/01/15 01:39:16;;;;;;;4.20;1.07;;;;;;;1.70;56.41;98157.95;1695718;84;21527;-41
2022/01/15 01:41:42;;;;;;;4.22;1.32;;;;;;;1.70;56.31;98167.30;1742230;81;26528;-41
2022/01/15 01:44:09;;;;;;;5.58;1.42;;;;;;;1.70;56.38;98161.95;1762889;79;21026;-41
2022/01/15 01:46:44;;;;;;;8.88;1.12;;;;;;;1.69;56.67;98173.77;1777958;80;21214;-41
2022/01/15 01:49:04;;;;;;;3.10;1.15;;;;;;;1.69;56.61;98171.11;1782117;80;21016;-41
2022/01/15 01:51:39;;;;;;;4.53;1.17;;;;;;;1.68;56.96;98165.53;1750666;80;21094;-41
2022/01/15 01:54:07;;;;;;;2.20;0.90;;;;;;;1.68;57.19;98173.55;1783004;80;21029;-41
2022/01/15 01:56:35;;;;;;;4.45;1.35;;;;;;;1.69;57.49;98176.45;1783556;80;20985;-41
2022/01/15 01:59:02;;;;;;;3.20;1.12;;;;;;;1.67;57.32;98178.66;1780800;79;21175;-41
2022/01/15 02:01:29;;;;;;;3.17;1.02;;;;;;;1.69;57.19;98172.44;1776179;78;21019;-41
2022/01/15 02:03:58;;;;;;;5.65;1.00;;;;;;;1.69;56.76;98173.19;1783429;78;20901;-41
2022/01/15 02:06:25;;;;;;;1.98;0.95;;;;;;;1.72;56.55;98178.45;1804398;78;20986;-41
2022/01/15 02:08:53;;;;;;;4.30;1.20;;;;;;;1.72;56.19;98174.44;1811354;79;21006;-41
2022/01/15 02:11:19;;;;;;;3.72;1.32;;;;;;;1.69;56.20;98185.80;1769265;79;21124;-41
2022/01/15 02:13:47;;;;;;;2.92;1.00;;;;;;;1.69;55.71;98179.12;1753489;78;21080;-41
2022/01/15 02:16:15;;;;;;;7.25;1.50;;;;;;;1.68;55.72;98177.55;1782940;78;21263;-41
2022/01/15 02:18:41;;;;;;;4.55;1.10;;;;;;;1.71;56.21;98183.00;1789473;78;21111;-41
2022/01/15 02:23:44;;;;;;;2.90;0.95;;;;;;;1.79;56.39;98204.09;1775908;78;21120;-41
2022/01/15 02:26:24;;;;;;;5.33;0.95;;;;;;;1.77;56.30;98208.97;1783691;80;21000;-41
2022/01/15 02:29:00;;;;;;;3.20;1.00;;;;;;;1.77;56.38;98200.17;1783644;80;21040;-41
2022/01/15 02:31:29;;;;;;;6.35;1.20;;;;;;;1.75;56.33;98213.84;1783687;80;21016;-41
2022/01/15 02:33:57;;;;;;;3.72;1.17;;;;;;;1.78;56.42;98227.13;1784967;78;21067;-41
2022/01/15 02:36:26;;;;;;;5.30;1.30;;;;;;;1.81;56.19;98215.77;1807703;78;21069;-41
2022/01/15 02:38:53;;;;;;;3.27;1.02;;;;;;;1.83;56.40;98215.67;1754432;80;20972;-41
2022/01/15 02:41:29;;;;;;;1.87;0.80;;;;;;;1.81;55.90;98220.55;1775703;80;21081;-41
2022/01/15 02:43:57;;;;;;;5.25;1.17;;;;;;;1.82;55.71;98232.03;1756989;80;20964;-41
2022/01/15 02:48:59;;;;;;;7.67;1.00;;;;;;;1.86;54.94;98232.92;1749740;80;21809;-41
2022/01/15 02:51:29;;;;;;;4.40;1.00;;;;;;;1.92;55.04;98245.77;1764429;78;21009;-41
2022/01/15 02:53:56;;;;;;;2.10;0.80;;;;;;;1.92;54.60;98243.09;1776620;80;21432;-41
2022/01/15 02:56:43;;;;;;;4.03;1.17;;;;;;;1.91;55.43;98241.52;1756795;80;21029;-41
2022/01/15 02:59:17;;;;;;;2.17;0.90;;;;;;;1.90;54.76;98251.98;1753053;79;21002;-41
2022/01/15 03:01:44;;;;;;;3.12;1.30;;;;;;;1.93;54.84;98247.88;1743744;81;21179;-41
2022/01/15 03:04:10;;;;;;;4.60;0.90;;;;;;;1.92;54.98;98250.33;1742790;81;20942;-41
2022/01/15 03:06:37;;;;;;;5.30;1.15;;;;;;;1.91;54.83;98265.58;1750517;79;21038;-41
2022/01/15 03:09:04;;;;;;;3.17;1.10;;;;;;;1.89;54.60;98261.10;1754085;79;21076;-41
2022/01/15 03:11:32;;;;;;;4.17;0.98;;;;;;;1.90;54.66;98257.33;1769848;81;20991;-41
2022/01/15 03:13:58;;;;;;;2.42;0.95;;;;;;;1.93;55.06;98267.92;1770141;81;21685;-41
2022/01/15 03:16:25;;;;;;;2.90;1.10;;;;;;;1.92;54.70;98265.02;1768907;81;21073;-41
2022/01/15 03:18:52;;;;;;;3.65;0.85;;;;;;;1.93;55.00;98266.04;1732114;82;21041;-41
2022/01/15 03:21:18;;;;;;;2.67;1.12;;;;;;;1.94;54.72;98259.56;1731555;80;20938;-41
2022/01/15 03:23:46;;;;;;;5.05;1.20;;;;;;;1.94;54.73;98271.59;1759214;79;21053;-41
2022/01/15 03:26:13;;;;;;;3.85;1.10;;;;;;;1.97;54.79;98271.50;1760760;81;21801;-41
2022/01/15 03:28:43;;;;;;;1.70;0.90;;;;;;;1.94;54.82;98280.94;1761555;81;21013;-41
2022/01/15 03:31:10;;;;;;;3.67;1.17;;;;;;;1.93;54.80;98287.42;1758544;80;21085;-41
2022/01/15 03:33:37;;;;;;;3.98;1.10;;;;;;;1.94;55.17;98280.94;1756056;81;21031;-41
2022/01/15 03:36:04;;;;;;;2.50;0.80;;;;;;;1.96;55.02;98277.40;1754170;81;21040;-41
2022/01/15 03:38:31;;;;;;;6.83;1.00;;;;;;;2.00;55.25;98273.50;1732182;81;21913;-41
2022/01/15 03:40:58;;;;;;;2.20;0.80;;;;;;;2.00;54.76;98279.64;1731522;82;21025;-41
2022/01/15 03:43:24;;;;;;;3.42;0.95;;;;;;;2.02;55.14;98285.45;1777797;79;21614;-41
2022/01/15 03:45:51;;;;;;;3.50;0.95;;;;;;;2.02;55.43;98289.45;1801446;79;21018;-41
2022/01/15 03:48:18;;;;;;;3.90;1.10;;;;;;;2.05;55.57;98290.12;1741872;79;21017;-41
2022/01/15 03:50:45;;;;;;;3.77;0.82;;;;;;;2.04;55.26;98297.12;1737818;81;21127;-41
2022/01/15 03:53:11;;;;;;;2.58;0.85;;;;;;;2.02;55.21;98302.82;1761623;81;21073;-41
2022/01/15 03:55:38;;;;;;;6.10;1.25;;;;;;;2.00;55.26;98295.67;1765709;80;21045;-41
2022/01/15 03:58:04;;;;;;;4.67;1.00;;;;;;;2.00;55.01;98299.69;1769977;81;21089;-41
2022/01/15 04:00:31;;;;;;;4.50;1.00;;;;;;;1.98;55.32;98296.58;1767497;79;21011;-41
2022/01/15 04:02:58;;;;;;;2.05;0.88;;;;;;;1.99;55.57;98311.48;1766279;81;21131;-41
2022/01/15 04:05:25;;;;;;;2.47;1.10;;;;;;;2.01;55.52;98306.59;1753338;80;21091;-41
2022/01/15 04:07:51;;;;;;;6.42;0.90;;;;;;;2.02;55.56;98300.70;1739572;81;20973;-41
2022/01/15 04:10:18;;;;;;;2.92;0.93;;;;;;;2.00;55.28;98303.69;1739227;81;21567;-41
2022/01/15 04:12:45;;;;;;;4.25;1.25;;;;;;;2.01;55.33;98295.91;1749639;81;21021;-41
2022/01/15 04:15:16;;;;;;;4.05;1.10;;;;;;;2.00;55.44;98298.34;1742841;81;21374;-41
2022/01/15 04:17:44;;;;;;;1.92;0.90;;;;;;;2.01;55.58;98307.16;1743780;79;21037;-41
2022/01/15 04:20:12;;;;;;;2.67;1.00;;;;;;;2.03;55.92;98303.61;1741081;81;21008;-41
2022/01/15 04:22:39;;;;;;;4.00;1.00;;;;;;;2.03;55.87;98307.61;1748609;81;21960;-41
2022/01/15 04:25:07;;;;;;;4.70;1.17;;;;;;;2.03;55.80;98312.38;1751152;81;21060;-41
2022/01/15 04:27:37;;;;;;;2.42;1.22;;;;;;;2.04;55.71;98310.49;1764802;81;21160;-41
2022/01/15 04:30:07;;;;;;;6.22;1.10;;;;;;;2.01;55.84;98319.97;1778958;79;20927;-41
2022/01/15 04:32:33;;;;;;;;;;;;;;;2.01;55.64;98317.84;1799073;79;21471;-41
2022/01/15 04:35:00;;;;;;;3.52;1.02;;;;;;;2.00;55.88;98311.71;1798928;79;20131;-41
2022/01/15 04:37:53;;;;;;;2.98;1.25;;;;;;;1.92;56.14;98320.59;1765022;81;21008;-41
2022/01/15 04:39:55;;;;;;;3.58;1.02;;;;;;;1.95;56.08;98317.81;1728905;82;21133;-41
2022/01/15 04:42:25;;;;;;;2.35;1.07;;;;;;;1.97;56.32;98327.08;1759535;81;20922;-41
2022/01/15 04:44:50;;;;;;;4.75;1.10;;;;;;;1.99;56.42;98326.18;1762824;81;21020;-41
2022/01/15 04:47:17;;;;;;;4.03;1.00;;;;;;;1.99;56.18;98331.53;1769803;81;20973;-41
2022/01/15 04:49:44;;;;;;;5.87;1.40;;;;;;;1.99;56.02;98324.84;1769942;80;21010;-41
2022/01/15 04:52:11;;;;;;;4.50;1.27;;;;;;;2.01;56.24;98334.66;1769368;81;21101;-41
2022/01/15 04:54:37;;;;;;;6.10;1.20;;;;;;;2.02;56.18;98340.24;1770027;81;21005;-41
2022/01/15 04:57:04;;;;;;;4.40;1.02;;;;;;;2.02;56.02;98328.22;1762354;81;20979;-41
2022/01/15 04:59:31;;;;;;;5.95;1.20;;;;;;;2.02;55.56;98337.57;1754546;81;20930;-41
2022/01/15 05:01:58;;;;;;;8.05;1.22;;;;;;;2.02;55.67;98338.91;1731415;81;21097;-41
2022/01/15 05:04:25;;;;;;;3.62;0.85;;;;;;;2.01;55.53;98340.56;1731651;82;21551;-41
2022/01/15 05:06:51;;;;;;;5.78;2.00;;;;;;;2.01;55.55;98339.23;1753148;79;21067;-41
2022/01/15 05:09:18;;;;;;;5.33;1.30;;;;;;;2.04;55.55;98338.56;1731812;82;21019;-41
2022/01/15 05:11:47;;;;;;;4.30;1.15;;;;;;;2.04;55.48;98355.38;1731235;82;21524;-41
2022/01/15 05:14:16;;;;;;;8.98;1.20;;;;;;;2.07;55.69;98350.73;1731672;82;21089;-41
2022/01/15 05:16:43;;;;;;;1.57;0.80;;;;;;;2.05;55.49;98351.61;1731549;82;21133;-41
2022/01/15 05:19:10;;;;;;;3.20;1.00;;;;;;;2.07;55.47;98352.08;1748171;81;20879;-41
2022/01/15 05:21:37;;;;;;;2.70;0.78;;;;;;;2.07;55.12;98353.96;1761646;81;20942;-41
2022/01/15 05:24:06;;;;;;;4.28;1.10;;;;;;;2.07;55.07;98348.06;1766048;79;21552;-41
2022/01/15 05:26:33;;;;;;;2.47;0.85;;;;;;;2.10;54.58;98345.27;1725967;83;21041;-40
2022/01/15 05:29:00;;;;;;;3.33;0.88;;;;;;;2.09;54.70;98359.20;1769968;79;21087;-41
2022/01/15 05:31:27;;;;;;;2.75;1.10;;;;;;;2.11;54.96;98361.00;1753675;81;21005;-41
2022/01/15 05:33:54;;;;;;;5.53;0.90;;;;;;;2.12;55.04;98359.11;1755013;79;21515;-41
2022/01/15 05:36:20;;;;;;;2.55;0.90;;;;;;;2.14;54.84;98363.00;1758414;81;20957;-41
2022/01/15 05:38:47;;;;;;;2.05;0.80;;;;;;;2.15;54.96;98364.58;1762085;80;21049;-41
2022/01/15 05:41:14;;;;;;;2.27;0.90;;;;;;;2.14;54.96;98378.27;1743402;79;21129;-41
2022/01/15 05:43:41;;;;;;;4.00;1.07;;;;;;;2.12;55.03;98360.45;1750540;79;21561;-41
2022/01/15 05:46:08;;;;;;;3.80;0.90;;;;;;;2.16;55.30;98366.70;1750708;81;21025;-41
2022/01/15 05:48:35;;;;;;;4.20;1.30;;;;;;;2.14;55.21;98364.34;1731397;81;21567;-41
2022/01/15 05:51:01;;;;;;;3.42;1.00;;;;;;;2.16;55.37;98379.52;1731226;82;21034;-41
2022/01/15 05:53:28;;;;;;;5.40;1.00;;;;;;;2.16;55.36;98384.08;1748428;81;21483;-41
2022/01/15 05:55:54;;;;;;;3.60;0.90;;;;;;;2.14;55.40;98387.06;1754799;81;20964;-41
2022/01/15 05:58:21;;;;;;;2.58;0.95;;;;;;;2.14;55.41;98384.39;1764400;79;20961;-41
2022/01/15 06:00:48;;;;;;;5.70;1.00;;;;;;;2.15;55.37;98391.86;1733500;81;20953;-41
2022/01/15 06:03:14;;;;;;;5.03;1.20;;;;;;;2.15;55.71;98388.64;1741277;80;20934;-41
2022/01/15 06:05:41;;;;;;;2.37;0.90;;;;;;;2.17;55.73;98389.11;1754182;80;21142;-41
2022/01/15 06:08:08;;;;;;;3.45;1.20;;;;;;;2.15;55.82;98385.97;1738499;79;21567;-41
2022/01/15 06:10:36;;;;;;;6.67;1.40;;;;;;;2.12;56.07;98385.30;1740180;81;21554;-41
2022/01/15 06:13:03;;;;;;;5.87;1.50;;;;;;;2.11;56.18;98381.05;1754140;81;21072;-41
2022/01/15 06:15:29;;;;;;;3.17;0.80;;;;;;;2.10;56.30;98392.06;1759093;79;20994;-41
2022/01/15 06:17:56;;;;;;;3.87;0.90;;;;;;;2.11;56.38;98393.63;1769790;81;21114;-41
2022/01/15 06:20:23;;;;;;;3.52;1.12;;;;;;;2.13;56.33;98390.09;1767998;80;20930;-41
2022/01/15 06:22:49;;;;;;;3.17;1.00;;;;;;;2.13;56.17;98393.52;1758052;79;20973;-41
2022/01/15 06:25:16;;;;;;;1.77;0.82;;;;;;;2.12;56.20;98395.98;1760679;81;20970;-41
2022/01/15 06:27:42;;;;;;;4.97;1.10;;;;;;;2.14;56.17;98396.98;1761721;81;21002;-41
2022/01/15 06:30:10;;;;;;;4.17;1.30;;;;;;;2.16;56.32;98398.23;1761623;81;21126;-41
2022/01/15 06:32:37;;;;;;;3.10;0.82;;;;;;;2.15;56.16;98411.36;1762086;79;21009;-41
2022/01/15 06:35:09;;;;;;;7.08;1.15;;;;;;;2.16;56.30;98406.25;1763225;80;21017;-41
2022/01/15 06:37:36;;;;;;;6.17;1.32;;;;;;;2.14;56.44;98413.80;1789037;80;21498;-41
2022/01/15 06:40:05;;;;;;;7.42;1.82;;;;;;;2.13;56.17;98405.55;1784986;80;21033;-41
2022/01/15 06:42:32;;;;;;;3.90;1.15;;;;;;;2.14;56.25;98413.02;1752115;79;21122;-41
2022/01/15 06:44:59;;;;;;;6.58;1.07;;;;;;;2.15;56.13;98418.60;1746869;80;21535;-41
2022/01/15 06:47:26;;;;;;;8.05;1.62;;;;;;;2.19;56.20;98420.30;1770313;79;21579;-41
2022/01/15 06:49:53;;;;;;;4.10;0.80;;;;;;;2.19;55.82;98418.95;1764934;79;20965;-41
2022/01/15 06:52:24;;;;;;;3.05;0.85;;;;;;;2.24;55.96;98430.56;1760241;81;21074;-41
2022/01/15 06:54:48;;;;;;;13.90;1.52;;;;;;;2.26;56.06;98420.33;1759004;80;21864;-41
2022/01/15 06:57:15;;;;;;;6.08;1.17;;;;;;;2.26;55.80;98429.14;1722138;83;21045;-41
2022/01/15 06:59:44;;;;;;;5.90;1.00;;;;;;;2.28;55.64;98434.92;1716123;83;21077;-41
2022/01/15 07:02:11;;;;;;;3.62;1.10;;;;;;;2.31;55.77;98430.83;1710151;82;21530;-41
2022/01/15 07:04:39;;;;;;;2.50;0.82;;;;;;;2.32;55.74;98439.09;1712879;83;21103;-41
2022/01/15 07:07:05;;;;;;;3.42;0.90;;;;;;;2.32;55.53;98443.09;1722135;81;21128;-41
2022/01/15 07:11:38;;;;;;;7.95;0.98;;;;;;;2.37;55.63;98446.33;1823835;78;22793;-41
2022/01/15 07:14:05;;;;;;;6.70;1.10;;;;;;;2.30;56.00;98450.66;1787964;79;20991;-41
2022/01/15 07:16:34;;;;;;;2.00;0.75;;;;;;;2.33;56.09;98450.77;1765808;79;21236;-41
2022/01/15 07:19:02;;;;;;;6.40;1.30;;;;;;;2.35;55.90;98455.25;1763585;80;20976;-41
2022/01/15 07:21:30;;;;;;;16.37;1.90;;;;;;;2.38;55.72;98451.91;1779831;79;21016;-41
2022/01/15 07:23:57;;;;;;;2.98;1.12;;;;;;;2.36;55.54;98464.06;1773083;79;21788;-41
2022/01/15 07:26:24;;;;;;;4.87;1.40;;;;;;;2.37;55.65;98472.32;1777976;79;21611;-41
2022/01/15 07:28:52;;;;;;;5.22;1.10;;;;;;;2.34;55.55;98460.92;1775042;79;21827;-41
2022/01/15 07:31:19;;;;;;;2.60;0.95;;;;;;;2.38;55.73;98476.54;1776466;80;21028;-41
2022/01/15 07:33:45;;;;;;;3.87;1.00;;;;;;;2.41;55.59;98469.22;1776294;79;21551;-41
2022/01/15 07:36:12;;;;;;;6.55;1.25;;;;;;;2.45;55.79;98471.45;1766272;80;20999;-41
2022/01/15 07:38:39;;;;;;;6.78;1.70;;;;;;;2.41;55.73;98458.52;1770435;80;21020;-41
2022/01/15 07:41:11;;;;;;;1.85;0.93;;;;;;;2.46;55.58;98475.70;1774921;79;22353;-41
2022/01/15 07:43:35;;;;;;;1.37;0.82;;;;;;;2.44;55.50;98469.89;1779060;80;21060;-42
2022/01/15 07:46:01;;;;;;;3.80;1.10;;;;;;;2.43;55.74;98481.14;1773307;79;20972;-42
2022/01/15 07:48:28;;;;;;;6.22;1.30;;;;;;;2.48;56.10;98480.16;1783132;80;20996;-42
2022/01/15 07:50:55;;;;;;;7.50;1.60;;;;;;;2.50;56.23;98486.77;1773598;79;20992;-42
2022/01/15 07:53:22;;;;;;;4.33;1.17;;;;;;;2.50;56.62;98485.42;1752541;80;21837;-42
2022/01/15 07:55:49;;;;;;;7.87;1.37;;;;;;;2.51;56.68;98485.66;1784240;80;21008;-42
2022/01/15 07:58:15;;;;;;;7.35;1.35;;;;;;;2.49;56.95;98491.09;1783278;80;20969;-42
2022/01/15 08:00:42;;;;;;;4.60;1.40;;;;;;;2.50;56.92;98495.34;1783160;79;20985;-42
2022/01/15 08:03:09;;;;;;;4.33;1.15;;;;;;;2.49;57.03;98499.91;1778058;79;21040;-41
2022/01/15 08:05:36;;;;;;;3.77;1.00;;;;;;;2.56;56.93;98498.84;1754461;79;21121;-42
2022/01/15 08:08:03;;;;;;;2.58;1.05;;;;;;;2.64;57.10;98499.86;1759302;79;21023;-42
2022/01/15 08:10:30;;;;;;;4.80;1.37;;;;;;;2.69;56.75;98492.97;1757839;79;21026;-42
2022/01/15 08:12:57;;;;;;;2.85;1.10;;;;;;;2.75;56.95;98504.27;1773787;79;21021;-42
2022/01/15 08:15:25;;;;;;;6.60;1.47;;;;;;;2.78;56.74;98507.06;1785859;79;20974;-42
2022/01/15 08:17:53;;;;;;;5.75;1.45;;;;;;;2.79;56.85;98508.63;1797321;79;21946;-42
2022/01/15 08:20:19;;;;;;;3.37;1.02;;;;;;;2.85;56.65;98504.65;1785313;79;20918;-42
2022/01/15 08:22:46;;;;;;;2.98;1.27;;;;;;;2.91;56.61;98523.39;1773068;80;20946;-42
2022/01/15 08:25:16;;;;;;;3.17;1.10;;;;;;;2.97;56.49;98518.06;1761534;80;21076;-42
2022/01/15 08:27:42;;;;;;;2.62;0.93;;;;;;;3.09;56.45;98524.58;1744539;81;21516;-42
2022/01/15 08:30:09;;;;;;;3.50;1.05;;;;;;;3.11;55.93;98523.13;1761059;80;21792;-42
2022/01/15 08:32:36;;;;;;;3.25;1.27;;;;;;;3.10;56.33;98542.22;1768514;79;21495;-41
2022/01/15 08:35:08;;;;;;;3.12;1.25;;;;;;;2.96;56.46;98533.89;1758637;79;20969;-42
2022/01/15 08:37:37;;;;;;;5.58;1.20;;;;;;;2.89;56.75;98535.00;1751381;81;20965;-42
2022/01/15 08:40:06;;;;;;;5.15;1.00;;;;;;;2.85;56.88;98533.30;1756867;80;20996;-41
2022/01/15 08:42:35;;;;;;;;;;;;;;;2.93;56.80;98537.79;1794701;79;21572;-42
2022/01/15 08:45:04;;;;;;;8.18;1.07;;;;;;;3.01;56.79;98536.36;1786671;79;20128;-42
2022/01/15 08:47:31;;;;;;;;;;;;;;;2.99;56.35;98534.59;1775085;80;21016;-42
2022/01/15 08:49:58;;;;;;;6.22;1.37;;;;;;;3.04;56.45;98550.45;1754781;80;20161;-42
2022/01/15 08:52:25;;;;;;;3.85;1.15;;;;;;;2.95;56.96;98549.72;1742275;81;21543;-42
2022/01/15 08:54:52;;;;;;;4.33;1.30;;;;;;;2.97;56.67;98550.74;1742256;81;21143;-42
2022/01/15 08:57:18;;;;;;;2.42;1.00;;;;;;;2.97;56.96;98538.70;1742146;82;20969;-42
2022/01/15 08:59:45;;;;;;;2.85;1.25;;;;;;;2.98;57.13;98558.45;1750970;81;20965;-42
2022/01/15 09:02:12;;;;;;;3.27;1.40;;;;;;;3.00;57.25;98551.44;1767421;79;20895;-42
2022/01/15 09:04:39;;;;;;;3.17;1.20;;;;;;;2.98;57.80;98550.42;1769660;80;21053;-42
2022/01/15 09:07:07;;;;;;;3.98;1.40;;;;;;;2.99;57.61;98556.01;1756366;80;21874;-41
2022/01/15 09:09:34;;;;;;;4.33;1.67;;;;;;;3.01;57.46;98559.68;1758858;81;20919;-41
2022/01/15 09:12:01;;;;;;;2.75;1.20;;;;;;;2.99;57.50;98562.70;1776512;79;21032;-41
2022/01/15 09:14:29;;;;;;;5.33;1.30;;;;;;;2.93;57.37;98568.02;1763624;79;21601;-41
2022/01/15 09:16:56;;;;;;;2.77;1.10;;;;;;;2.85;57.76;98558.19;1769294;80;21535;-41
2022/01/15 09:19:22;;;;;;;2.42;1.17;;;;;;;2.83;58.00;98572.44;1786858;80;21068;-40
2022/01/15 09:21:49;;;;;;;4.08;1.65;;;;;;;2.76;58.89;98593.58;1762990;79;21603;-40
2022/01/15 09:24:16;;;;;;;5.28;1.70;;;;;;;2.71;59.23;98566.25;1759981;80;21520;-40
2022/01/15 09:27:01;;;;;;;9.38;1.92;;;;;;;2.67;59.53;98586.72;1768860;80;21000;-40
2022/01/15 09:32:04;;;;;;;3.00;1.35;;;;;;;2.71;59.04;98575.03;1763051;80;21151;-40
2022/01/15 09:34:34;;;;;;;5.53;1.57;;;;;;;2.78;59.05;98575.31;1785779;79;21542;-41
2022/01/15 09:37:02;;;;;;;6.28;1.57;;;;;;;2.90;58.24;98584.75;1766246;80;21020;-40
2022/01/15 09:39:30;;;;;;;3.58;1.20;;;;;;;2.98;58.08;98578.53;1786299;78;21029;-41
2022/01/15 09:41:56;;;;;;;6.00;1.30;;;;;;;3.00;58.77;98578.97;1796724;78;21045;-41
2022/01/15 09:44:24;;;;;;;3.08;1.50;;;;;;;2.97;59.28;98585.55;1780441;80;21062;-41
2022/01/15 09:46:52;;;;;;;2.40;1.20;;;;;;;2.87;58.99;98580.59;1770169;79;20964;-41
2022/01/15 09:49:22;;;;;;;2.70;1.05;;;;;;;2.81;58.99;98584.59;1755835;80;20990;-41
2022/01/15 09:51:49;;;;;;;4.12;1.37;;;;;;;2.77;59.30;98577.75;1793952;79;21622;-42
2022/01/15 09:54:17;;;;;;;4.03;1.55;;;;;;;2.79;59.22;98572.87;1820558;78;21051;-41
2022/01/15 09:56:46;;;;;;;3.72;1.35;;;;;;;2.85;59.15;98586.29;1820189;78;21800;-41
2022/01/15 09:59:13;;;;;;;3.05;1.17;;;;;;;2.93;59.34;98588.11;1797120;79;20933;-41
2022/01/15 10:01:40;;;;;;;2.85;1.30;;;;;;;2.94;58.82;98579.52;1786028;80;20957;-41
2022/01/15 10:04:06;;;;;;;3.08;1.10;;;;;;;2.92;58.94;98587.08;1786998;80;20978;-41
2022/01/15 10:06:33;;;;;;;3.83;1.25;;;;;;;2.89;58.82;98584.52;1786740;80;21075;-41
2022/01/15 10:09:08;;;;;;;3.92;1.22;;;;;;;2.86;58.68;98587.83;1767046;80;21523;-41
2022/01/15 10:11:48;;;;;;;3.20;1.80;;;;;;;2.84;58.51;98582.04;1777028;79;21058;-41
2022/01/15 10:14:29;;;;;;;;;;;;;;;2.83;58.55;98590.39;1783494;80;21032;-44
2022/01/15 10:16:58;;;;;;;4.22;1.40;;;;;;;2.82;58.24;98592.28;1779480;80;20118;-43
2022/01/15 10:19:36;;;;;;;4.62;1.77;;;;;;;2.73;58.68;98602.27;1776053;78;21025;-43
2022/01/15 10:22:16;;;;;;;2.83;1.27;;;;;;;2.75;58.51;98598.72;1772011;80;21093;-44
2022/01/15 10:24:56;;;;;;;3.83;1.35;;;;;;;2.71;58.37;98607.15;1777374;78;20945;-43
2022/01/15 10:27:31;;;;;;;3.77;1.45;;;;;;;2.69;58.29;98609.38;1777451;80;21514;-43
2022/01/15 10:30:12;;;;;;;4.22;1.42;;;;;;;2.67;59.04;98604.91;1789326;80;20972;-43
2022/01/15 10:33:06;;;;;;;4.12;1.80;;;;;;;2.67;58.89;98610.25;1783114;79;21064;-43
2022/01/15 10:35:41;;;;;;;4.37;1.50;;;;;;;2.70;59.04;98610.95;1778077;79;21125;-43
2022/01/15 10:38:14;;;;;;;8.48;2.20;;;;;;;2.80;59.01;98609.23;1778219;80;21039;-44
2022/01/15 10:40:47;;;;;;;4.72;1.40;;;;;;;2.95;58.63;98602.52;1787481;80;20964;-43
2022/01/15 10:43:17;;;;;;;5.05;1.30;;;;;;;3.09;58.06;98608.38;1780146;79;21502;-43
2022/01/15 10:45:53;;;;;;;4.62;1.62;;;;;;;3.16;57.60;98617.20;1759228;80;26581;-43
2022/01/15 10:48:35;;;;;;;4.47;1.40;;;;;;;3.22;57.54;98610.54;1774290;80;21294;-43
2022/01/15 10:51:08;;;;;;;4.12;1.40;;;;;;;3.21;57.56;98616.45;1789253;80;20909;-43
2022/01/15 10:53:42;;;;;;;4.90;1.22;;;;;;;3.18;57.28;98624.37;1782908;78;20984;-43
2022/01/15 10:56:11;;;;;;;5.85;1.50;;;;;;;3.14;56.65;98621.56;1749049;81;21029;-44
2022/01/15 10:58:41;;;;;;;3.95;1.55;;;;;;;3.12;57.07;98618.42;1748558;80;21521;-43
2022/01/15 11:01:14;;;;;;;3.17;1.40;;;;;;;3.10;57.45;98616.61;1744707;81;21114;-44
2022/01/15 11:03:45;;;;;;;4.12;1.20;;;;;;;3.11;57.55;98626.77;1720356;81;21629;-43
2022/01/15 11:06:12;;;;;;;4.83;1.27;;;;;;;3.12;57.76;98629.69;1745453;81;21110;-43
2022/01/15 11:08:40;;;;;;;4.70;1.40;;;;;;;3.10;57.55;98635.94;1742200;81;21520;-43
2022/01/15 11:11:09;;;;;;;1.72;0.95;;;;;;;3.06;57.79;98637.91;1745273;81;21080;-43
2022/01/15 11:13:41;;;;;;;3.70;1.37;;;;;;;3.04;57.53;98641.50;1732184;82;21078;-43
2022/01/15 11:16:14;;;;;;;2.25;1.12;;;;;;;3.03;57.51;98640.47;1726141;82;20968;-43
2022/01/15 11:18:49;;;;;;;3.58;1.10;;;;;;;3.05;57.79;98649.73;1732255;82;21055;-44
2022/01/15 11:21:18;;;;;;;3.20;1.20;;;;;;;3.06;57.29;98641.94;1726800;82;20986;-43
2022/01/15 11:23:46;;;;;;;4.00;1.12;;;;;;;3.05;57.29;98647.05;1733284;82;21039;-44
2022/01/15 11:26:21;;;;;;;3.87;1.07;;;;;;;3.05;57.14;98654.30;1733779;82;21816;-43
2022/01/15 11:28:49;;;;;;;3.17;1.10;;;;;;;3.06;57.57;98659.89;1721252;82;21076;-44
2022/01/15 11:31:25;;;;;;;2.85;1.25;;;;;;;3.06;57.59;98661.23;1729355;82;21040;-43
2022/01/15 11:33:53;;;;;;;2.95;1.00;;;;;;;3.10;57.11;98658.70;1709827;81;21057;-44
2022/01/15 11:36:41;;;;;;;1.70;0.82;;;;;;;3.11;57.17;98667.73;1725049;83;21062;-43
2022/01/15 11:39:15;;;;;;;1.87;0.80;;;;;;;3.17;57.09;98657.61;1724346;83;21125;-43
2022/01/15 11:41:53;;;;;;;5.20;1.10;;;;;;;3.23;56.95;98667.81;1703182;83;21046;-43
2022/01/15 11:44:30;;;;;;;2.95;1.07;;;;;;;3.25;56.32;98676.28;1711113;83;21053;-43
2022/01/15 11:47:00;;;;;;;3.35;1.20;;;;;;;3.23;56.58;98679.08;1714108;83;21591;-43
2022/01/15 11:49:44;;;;;;;1.65;0.90;;;;;;;3.20;56.75;98678.37;1703617;83;21037;-43
2022/01/15 11:52:22;;;;;;;4.30;1.00;;;;;;;3.15;57.04;98679.94;1698686;83;21095;-43
2022/01/15 11:54:55;;;;;;;2.83;1.10;;;;;;;3.10;57.68;98670.76;1708558;83;20985;-44
2022/01/15 11:57:30;;;;;;;4.17;1.37;;;;;;;3.13;57.80;98686.16;1714400;83;21355;-43
2022/01/15 12:00:01;;;;;;;2.47;0.90;;;;;;;3.10;57.45;98678.79;1705886;82;21066;-43
2022/01/15 12:02:38;;;;;;;2.90;1.05;;;;;;;3.00;57.51;98686.66;1726988;82;20969;-43
2022/01/15 12:05:27;;;;;;;3.35;1.22;;;;;;;2.96;57.56;98693.19;1705915;83;21133;-43